Time;durP1;ratioP1;P1;durP2;ratioP2;P2;SDS_P1;SDS_P2;PMS_P1;PMS_P2;Temp;Humidity;BMP_temperature;BMP_pressure;BME280_temperature;BME280_humidity;BME280_pressure;Samples;Min_cycle;Max_cycle;Signal;HPM_P1;HPM_P2
2021/09/28 00:01:58;;;;;;;8.63;3.13;;;;;;;;;;4950317;28;20031;-58
2021/09/28 00:04:23;;;;;;;4.20;2.13;;;;;;;;;;4951360;28;20031;-57
2021/09/28 00:06:48;;;;;;;7.82;2.92;;;;;;;;;;4955917;28;20114;-58
2021/09/28 00:09:13;;;;;;;5.15;3.10;;;;;;;;;;4955192;28;20027;-58
2021/09/28 00:11:39;;;;;;;10.82;3.42;;;;;;;;;;4950333;28;20122;-57
2021/09/28 00:14:04;;;;;;;8.70;3.40;;;;;;;;;;4957466;28;20126;-58
2021/09/28 00:16:29;;;;;;;10.80;4.50;;;;;;;;;;4948608;28;20402;-58
2021/09/28 00:18:54;;;;;;;12.18;4.28;;;;;;;;;;4950966;28;20027;-58
2021/09/28 00:21:20;;;;;;;10.88;4.28;;;;;;;;;;4954226;28;20074;-58
2021/09/28 00:23:45;;;;;;;11.02;4.63;;;;;;;;;;4952729;28;20039;-58
2021/09/28 00:26:10;;;;;;;10.27;4.00;;;;;;;;;;4950476;28;20126;-58
2021/09/28 00:28:35;;;;;;;16.55;5.18;;;;;;;;;;4950418;28;20060;-58
2021/09/28 00:31:01;;;;;;;13.65;4.65;;;;;;;;;;4950241;28;20046;-58
2021/09/28 00:33:27;;;;;;;10.07;3.90;;;;;;;;;;4949682;28;20027;-58
2021/09/28 00:35:53;;;;;;;11.60;4.00;;;;;;;;;;4952248;28;20464;-58
2021/09/28 00:38:18;;;;;;;11.32;4.35;;;;;;;;;;4953427;28;20031;-58
2021/09/28 00:40:43;;;;;;;12.50;4.80;;;;;;;;;;4950247;28;20130;-58
2021/09/28 00:43:08;;;;;;;13.15;4.68;;;;;;;;;;4951360;28;20031;-58
2021/09/28 00:45:34;;;;;;;16.85;4.15;;;;;;;;;;4950052;28;20039;-58
2021/09/28 00:47:59;;;;;;;9.65;4.50;;;;;;;;;;4955611;28;20035;-58
2021/09/28 00:50:24;;;;;;;17.77;5.10;;;;;;;;;;4961388;28;20039;-58
2021/09/28 00:52:49;;;;;;;11.82;4.40;;;;;;;;;;4956416;28;20086;-58
2021/09/28 00:55:15;;;;;;;12.48;5.45;;;;;;;;;;4952319;28;20039;-58
2021/09/28 00:57:41;;;;;;;9.25;4.53;;;;;;;;;;4955802;28;20382;-58
2021/09/28 01:00:07;;;;;;;15.77;5.40;;;;;;;;;;4948157;28;20027;-57
2021/09/28 01:02:33;;;;;;;10.32;5.03;;;;;;;;;;4950540;28;20019;-58
2021/09/28 01:05:02;;;;;;;10.90;4.15;;;;;;;;;;4950996;28;20015;-58
2021/09/28 01:07:27;;;;;;;10.27;4.80;;;;;;;;;;4950946;28;20063;-58
2021/09/28 01:09:53;;;;;;;12.68;4.75;;;;;;;;;;4949737;28;20027;-58
2021/09/28 01:12:18;;;;;;;14.23;5.60;;;;;;;;;;4949291;28;20039;-58
2021/09/28 01:14:44;;;;;;;10.65;5.50;;;;;;;;;;4952927;28;20035;-58
2021/09/28 01:17:18;;;;;;;14.27;5.93;;;;;;;;;;4949931;28;20042;-58
2021/09/28 01:19:44;;;;;;;15.63;5.38;;;;;;;;;;4955989;28;20106;-58
2021/09/28 01:22:09;;;;;;;13.80;5.53;;;;;;;;;;4948395;28;20129;-58
2021/09/28 01:24:35;;;;;;;10.80;5.13;;;;;;;;;;4961395;28;20031;-58
2021/09/28 01:27:00;;;;;;;16.05;5.40;;;;;;;;;;4960473;28;20039;-58
2021/09/28 01:29:25;;;;;;;13.35;5.35;;;;;;;;;;4960920;28;20559;-58
2021/09/28 01:31:50;;;;;;;10.27;4.97;;;;;;;;;;4957983;28;20042;-58
2021/09/28 01:34:16;;;;;;;12.63;4.57;;;;;;;;;;4958666;28;20573;-58
2021/09/28 01:36:42;;;;;;;15.48;5.30;;;;;;;;;;4956042;28;20086;-58
2021/09/28 01:39:07;;;;;;;14.20;5.43;;;;;;;;;;4959641;28;20030;-58
2021/09/28 01:41:32;;;;;;;12.00;4.95;;;;;;;;;;4952467;28;20410;-58
2021/09/28 01:44:07;;;;;;;11.73;4.93;;;;;;;;;;4961550;28;20393;-58
2021/09/28 01:46:33;;;;;;;18.38;5.10;;;;;;;;;;4951673;28;20106;-58
2021/09/28 01:48:58;;;;;;;9.52;4.78;;;;;;;;;;4954074;28;20029;-58
2021/09/28 01:51:23;;;;;;;10.07;4.75;;;;;;;;;;4951365;28;20028;-58
2021/09/28 01:53:48;;;;;;;12.75;4.80;;;;;;;;;;4960197;28;20418;-58
2021/09/28 01:56:17;;;;;;;20.33;5.68;;;;;;;;;;4952649;28;20045;-58
2021/09/28 01:58:42;;;;;;;10.13;4.72;;;;;;;;;;4953190;28;20053;-58
2021/09/28 02:01:08;;;;;;;14.23;5.35;;;;;;;;;;4952967;28;20038;-58
2021/09/28 02:03:33;;;;;;;12.77;4.97;;;;;;;;;;4953457;28;20433;-58
2021/09/28 02:05:58;;;;;;;14.82;5.57;;;;;;;;;;4956874;28;20494;-58
2021/09/28 02:08:23;;;;;;;22.20;4.95;;;;;;;;;;4953499;28;20039;-58
2021/09/28 02:10:48;;;;;;;14.13;4.80;;;;;;;;;;4954540;28;20039;-58
2021/09/28 02:13:14;;;;;;;14.73;4.85;;;;;;;;;;4955096;28;20035;-58
2021/09/28 02:15:40;;;;;;;14.30;5.50;;;;;;;;;;4961156;28;20089;-58
2021/09/28 02:18:05;;;;;;;13.73;5.95;;;;;;;;;;4953287;28;20031;-58
2021/09/28 02:20:30;;;;;;;17.27;5.10;;;;;;;;;;4954427;28;20101;-58
2021/09/28 02:22:55;;;;;;;16.05;5.22;;;;;;;;;;4953051;28;20030;-58
2021/09/28 02:25:22;;;;;;;7.72;5.10;;;;;;;;;;4955733;28;20035;-58
2021/09/28 02:27:48;;;;;;;17.55;5.95;;;;;;;;;;4952459;28;20055;-58
2021/09/28 02:30:13;;;;;;;17.52;5.65;;;;;;;;;;4962134;28;20073;-58
2021/09/28 02:32:38;;;;;;;10.50;4.82;;;;;;;;;;4953068;28;20034;-58
2021/09/28 02:35:04;;;;;;;11.48;4.45;;;;;;;;;;4952753;28;20049;-58
2021/09/28 02:37:29;;;;;;;12.30;5.20;;;;;;;;;;4952894;28;20031;-58
2021/09/28 02:39:54;;;;;;;16.58;4.53;;;;;;;;;;4952733;28;20031;-58
2021/09/28 02:42:19;;;;;;;13.50;4.35;;;;;;;;;;4955383;28;20043;-58
2021/09/28 02:44:45;;;;;;;11.05;4.03;;;;;;;;;;4958035;28;20164;-58
2021/09/28 02:47:10;;;;;;;9.48;3.83;;;;;;;;;;4958465;28;20090;-58
2021/09/28 02:49:35;;;;;;;13.52;3.95;;;;;;;;;;4952798;28;20039;-58
2021/09/28 02:52:01;;;;;;;10.95;3.97;;;;;;;;;;4951498;28;20051;-58
2021/09/28 02:54:26;;;;;;;12.60;4.10;;;;;;;;;;4954352;28;20043;-58
2021/09/28 02:56:51;;;;;;;13.18;4.10;;;;;;;;;;4952411;28;20043;-58
2021/09/28 02:59:16;;;;;;;14.30;3.85;;;;;;;;;;4957535;28;20027;-58
2021/09/28 03:01:42;;;;;;;15.18;3.58;;;;;;;;;;4951895;28;20035;-58
2021/09/28 03:04:07;;;;;;;12.50;4.00;;;;;;;;;;4952847;28;20066;-59
2021/09/28 03:06:32;;;;;;;9.10;4.25;;;;;;;;;;4954458;28;20414;-58
2021/09/28 03:08:57;;;;;;;11.13;4.03;;;;;;;;;;4952651;28;20094;-58
2021/09/28 03:11:26;;;;;;;9.57;4.50;;;;;;;;;;4951723;28;20095;-59
2021/09/28 03:13:51;;;;;;;10.20;4.28;;;;;;;;;;4955857;28;20031;-58
2021/09/28 03:16:16;;;;;;;12.25;3.67;;;;;;;;;;4953884;28;20118;-58
2021/09/28 03:18:42;;;;;;;12.85;4.20;;;;;;;;;;4951833;28;20023;-58
2021/09/28 03:21:07;;;;;;;11.15;4.13;;;;;;;;;;4954736;28;20063;-58
2021/09/28 03:23:32;;;;;;;10.57;3.70;;;;;;;;;;4952119;28;20123;-58
2021/09/28 03:25:57;;;;;;;11.60;4.00;;;;;;;;;;4952137;28;20126;-58
2021/09/28 03:28:23;;;;;;;9.40;3.20;;;;;;;;;;4953836;28;20026;-58
2021/09/28 03:30:48;;;;;;;18.42;4.00;;;;;;;;;;4961140;28;20042;-58
2021/09/28 03:33:13;;;;;;;10.82;3.83;;;;;;;;;;4954492;28;20063;-58
2021/09/28 03:35:38;;;;;;;12.85;3.83;;;;;;;;;;4956821;28;20130;-58
2021/09/28 03:38:03;;;;;;;12.85;4.10;;;;;;;;;;4952951;28;20384;-58
2021/09/28 03:40:30;;;;;;;9.00;3.40;;;;;;;;;;4951404;28;20035;-58
2021/09/28 03:42:56;;;;;;;7.80;3.55;;;;;;;;;;4954439;28;20027;-58
2021/09/28 03:45:21;;;;;;;9.20;3.60;;;;;;;;;;4952379;28;20050;-58
2021/09/28 03:47:46;;;;;;;11.18;4.25;;;;;;;;;;4954964;28;20045;-58
2021/09/28 03:50:11;;;;;;;11.30;3.88;;;;;;;;;;4950545;28;20134;-58
2021/09/28 03:52:37;;;;;;;12.13;3.38;;;;;;;;;;4949826;28;20032;-59
2021/09/28 03:55:02;;;;;;;13.73;3.72;;;;;;;;;;4959056;28;20370;-57
2021/09/28 03:57:28;;;;;;;14.95;4.28;;;;;;;;;;4952556;28;20026;-58
2021/09/28 03:59:53;;;;;;;11.18;2.75;;;;;;;;;;4956621;28;20073;-58
2021/09/28 04:02:18;;;;;;;11.50;3.10;;;;;;;;;;4951449;28;20482;-58
2021/09/28 04:04:44;;;;;;;8.52;3.03;;;;;;;;;;4956223;28;20054;-58
2021/09/28 04:07:09;;;;;;;14.57;3.40;;;;;;;;;;4950502;28;20118;-58
2021/09/28 04:09:34;;;;;;;8.57;3.25;;;;;;;;;;4950893;28;20042;-58
2021/09/28 04:11:59;;;;;;;11.85;3.13;;;;;;;;;;4955204;28;20031;-58
2021/09/28 04:14:26;;;;;;;15.82;3.50;;;;;;;;;;4951554;28;20118;-58
2021/09/28 04:16:51;;;;;;;7.80;3.08;;;;;;;;;;4950542;28;20185;-58
2021/09/28 04:19:16;;;;;;;13.73;3.78;;;;;;;;;;4951462;28;20410;-58
2021/09/28 04:21:42;;;;;;;10.18;3.30;;;;;;;;;;4950418;28;20657;-58
2021/09/28 04:24:07;;;;;;;11.60;3.58;;;;;;;;;;4953716;28;20443;-58
2021/09/28 04:26:35;;;;;;;10.63;3.00;;;;;;;;;;4952791;28;20681;-58
2021/09/28 04:29:00;;;;;;;11.07;3.17;;;;;;;;;;4950931;28;20195;-58
2021/09/28 04:31:26;;;;;;;9.65;3.13;;;;;;;;;;4950566;28;20043;-58
2021/09/28 04:33:51;;;;;;;9.60;3.38;;;;;;;;;;4952316;28;20082;-58
2021/09/28 04:36:16;;;;;;;10.65;3.47;;;;;;;;;;4952435;28;20035;-58
2021/09/28 04:38:41;;;;;;;11.88;3.47;;;;;;;;;;4953379;28;20018;-58
2021/09/28 04:41:07;;;;;;;12.38;3.42;;;;;;;;;;4953398;28;20531;-58
2021/09/28 04:43:32;;;;;;;13.60;4.38;;;;;;;;;;4955651;28;20039;-58
2021/09/28 04:45:57;;;;;;;10.25;3.40;;;;;;;;;;4949264;28;20039;-58
2021/09/28 04:48:22;;;;;;;11.70;3.80;;;;;;;;;;4953610;28;20046;-57
2021/09/28 04:50:49;;;;;;;7.15;3.30;;;;;;;;;;4950075;28;20031;-58
2021/09/28 04:53:14;;;;;;;10.27;3.85;;;;;;;;;;4955382;28;20074;-58
2021/09/28 04:55:40;;;;;;;12.75;3.90;;;;;;;;;;4950368;28;20065;-58
2021/09/28 04:58:05;;;;;;;9.98;3.85;;;;;;;;;;4952310;28;20401;-58
2021/09/28 05:00:30;;;;;;;9.18;3.55;;;;;;;;;;4954514;28;20047;-58
2021/09/28 05:02:56;;;;;;;11.02;3.95;;;;;;;;;;4954534;28;20031;-58
2021/09/28 05:05:21;;;;;;;15.57;3.55;;;;;;;;;;4954106;28;20081;-58
2021/09/28 05:07:46;;;;;;;13.52;3.75;;;;;;;;;;4957570;28;20031;-58
2021/09/28 05:10:11;;;;;;;12.65;3.28;;;;;;;;;;4954646;28;20677;-59
2021/09/28 05:12:37;;;;;;;8.43;4.10;;;;;;;;;;4954144;28;20032;-59
2021/09/28 05:15:03;;;;;;;11.90;4.30;;;;;;;;;;4953894;28;20035;-58
2021/09/28 05:17:28;;;;;;;12.00;5.25;;;;;;;;;;4960344;28;20153;-58
2021/09/28 05:19:53;;;;;;;14.00;6.45;;;;;;;;;;4952919;28;20034;-58
2021/09/28 05:22:18;;;;;;;10.25;6.55;;;;;;;;;;4953777;28;20445;-57
2021/09/28 05:24:44;;;;;;;14.18;6.38;;;;;;;;;;4960026;28;20030;-57
2021/09/28 05:27:09;;;;;;;15.07;7.78;;;;;;;;;;4953626;28;20674;-57
2021/09/28 05:29:34;;;;;;;18.55;8.40;;;;;;;;;;4960542;28;20105;-57
2021/09/28 05:32:00;;;;;;;19.13;8.60;;;;;;;;;;4955841;28;20047;-58
2021/09/28 05:34:25;;;;;;;25.85;10.32;;;;;;;;;;4960034;28;20054;-58
2021/09/28 05:36:51;;;;;;;18.13;8.50;;;;;;;;;;4953825;28;20544;-58
2021/09/28 05:39:17;;;;;;;13.07;6.25;;;;;;;;;;4958513;28;20066;-58
2021/09/28 05:41:42;;;;;;;16.42;9.13;;;;;;;;;;4952966;28;20105;-58
2021/09/28 05:44:07;;;;;;;19.00;9.45;;;;;;;;;;4954673;28;20029;-57
2021/09/28 05:46:32;;;;;;;22.67;9.48;;;;;;;;;;4962462;28;20457;-57
2021/09/28 05:48:57;;;;;;;17.88;8.40;;;;;;;;;;4959857;28;20474;-57
2021/09/28 05:51:25;;;;;;;19.15;9.35;;;;;;;;;;4955261;28;20130;-57
2021/09/28 05:53:51;;;;;;;14.55;8.68;;;;;;;;;;4957266;28;20061;-57
2021/09/28 05:56:16;;;;;;;16.90;9.38;;;;;;;;;;4958566;28;20485;-57
2021/09/28 05:58:41;;;;;;;20.35;8.57;;;;;;;;;;4959344;28;20669;-57
2021/09/28 06:01:07;;;;;;;16.70;9.65;;;;;;;;;;4961058;28;20397;-57
2021/09/28 06:03:32;;;;;;;22.15;10.10;;;;;;;;;;4953617;28;20486;-58
2021/09/28 06:05:57;;;;;;;15.75;9.07;;;;;;;;;;4951994;28;20370;-57
2021/09/28 06:08:22;;;;;;;14.18;7.68;;;;;;;;;;4953758;28;20069;-57
2021/09/28 06:10:47;;;;;;;20.30;9.57;;;;;;;;;;4950339;28;20126;-58
2021/09/28 06:13:13;;;;;;;21.55;10.25;;;;;;;;;;4951804;28;20058;-59
2021/09/28 06:15:38;;;;;;;20.48;9.43;;;;;;;;;;4956575;28;20035;-57
2021/09/28 06:18:04;;;;;;;16.40;9.63;;;;;;;;;;4959255;28;20130;-57
2021/09/28 06:20:29;;;;;;;19.90;10.05;;;;;;;;;;4956592;28;20039;-57
2021/09/28 06:22:54;;;;;;;18.15;9.30;;;;;;;;;;4955772;28;20636;-57
2021/09/28 06:25:19;;;;;;;16.65;9.52;;;;;;;;;;4955705;28;20548;-57
2021/09/28 06:27:45;;;;;;;17.45;9.05;;;;;;;;;;4953784;28;20023;-57
2021/09/28 06:30:10;;;;;;;16.15;8.13;;;;;;;;;;4951816;28;20070;-59
2021/09/28 06:32:35;;;;;;;13.77;8.13;;;;;;;;;;4959276;28;20537;-58
2021/09/28 06:35:02;;;;;;;20.08;8.80;;;;;;;;;;4952554;28;20066;-57
2021/09/28 06:37:27;;;;;;;12.93;7.65;;;;;;;;;;4952999;28;20034;-57
2021/09/28 06:39:52;;;;;;;19.88;7.68;;;;;;;;;;4961877;28;20030;-58
2021/09/28 06:42:17;;;;;;;13.80;6.97;;;;;;;;;;4952783;28;20055;-58
2021/09/28 06:44:43;;;;;;;14.95;7.20;;;;;;;;;;4955743;28;20059;-58
2021/09/28 06:47:08;;;;;;;13.82;7.07;;;;;;;;;;4962143;28;20094;-58
2021/09/28 06:49:33;;;;;;;7.82;4.95;;;;;;;;;;4956418;28;20046;-58
2021/09/28 06:51:58;;;;;;;17.75;6.88;;;;;;;;;;4951435;28;20031;-58
2021/09/28 06:54:24;;;;;;;9.43;5.93;;;;;;;;;;4952226;28;20122;-58
2021/09/28 06:56:50;;;;;;;13.43;6.00;;;;;;;;;;4952683;28;20047;-58
2021/09/28 06:59:15;;;;;;;11.40;5.30;;;;;;;;;;4957961;28;20043;-58
2021/09/28 07:01:40;;;;;;;13.70;5.82;;;;;;;;;;4954442;28;20458;-58
2021/09/28 07:04:06;;;;;;;11.15;5.00;;;;;;;;;;4963811;28;20028;-58
2021/09/28 07:06:31;;;;;;;10.52;4.63;;;;;;;;;;4951667;28;20065;-58
2021/09/28 07:08:56;;;;;;;10.73;4.75;;;;;;;;;;4952346;28;20058;-58
2021/09/28 07:11:21;;;;;;;11.38;4.35;;;;;;;;;;4952007;28;20518;-58
2021/09/28 07:13:47;;;;;;;13.48;4.07;;;;;;;;;;4954891;28;20035;-59
2021/09/28 07:16:13;;;;;;;9.35;4.10;;;;;;;;;;4952372;28;20027;-58
2021/09/28 07:18:38;;;;;;;7.45;3.80;;;;;;;;;;4951872;28;20458;-58
2021/09/28 07:21:03;;;;;;;10.68;4.47;;;;;;;;;;4950395;28;20394;-59
2021/09/28 07:23:29;;;;;;;9.57;4.07;;;;;;;;;;4952480;28;20489;-58
2021/09/28 07:25:55;;;;;;;8.23;3.80;;;;;;;;;;4954281;28;20046;-59
2021/09/28 07:28:20;;;;;;;8.10;4.07;;;;;;;;;;4952376;28;20043;-58
2021/09/28 07:30:45;;;;;;;12.07;4.40;;;;;;;;;;4952003;28;20055;-59
2021/09/28 07:33:10;;;;;;;11.30;3.70;;;;;;;;;;4956406;28;20442;-58
2021/09/28 07:35:35;;;;;;;13.60;4.63;;;;;;;;;;4957126;28;20034;-59
2021/09/28 07:38:01;;;;;;;8.98;4.13;;;;;;;;;;4960315;28;20514;-59
2021/09/28 07:40:26;;;;;;;8.43;4.03;;;;;;;;;;4950715;28;20039;-58
2021/09/28 07:42:51;;;;;;;7.05;3.38;;;;;;;;;;4955659;28;20035;-59
2021/09/28 07:45:16;;;;;;;10.45;4.15;;;;;;;;;;4951633;28;20039;-59
2021/09/28 07:47:42;;;;;;;13.65;4.30;;;;;;;;;;4938811;28;20778;-59
2021/09/28 07:50:07;;;;;;;8.13;4.57;;;;;;;;;;4953740;28;20030;-58
2021/09/28 07:52:32;;;;;;;7.43;3.50;;;;;;;;;;4951566;28;20053;-59
2021/09/28 07:54:58;;;;;;;8.82;4.00;;;;;;;;;;4951231;28;20038;-59
2021/09/28 07:57:23;;;;;;;7.53;3.58;;;;;;;;;;4951281;28;20035;-59
2021/09/28 07:59:51;;;;;;;8.65;3.08;;;;;;;;;;4955989;28;20033;-59
2021/09/28 08:02:19;;;;;;;9.77;3.40;;;;;;;;;;4960895;28;20138;-59
2021/09/28 08:04:45;;;;;;;10.10;3.63;;;;;;;;;;4958292;28;20078;-60
2021/09/28 08:07:12;;;;;;;6.88;3.80;;;;;;;;;;4952268;28;20039;-59
2021/09/28 08:09:38;;;;;;;6.88;3.17;;;;;;;;;;4957598;28;20073;-59
2021/09/28 08:12:03;;;;;;;11.43;3.60;;;;;;;;;;4950662;28;20039;-59
2021/09/28 08:14:29;;;;;;;7.28;3.47;;;;;;;;;;4951314;28;20042;-59
2021/09/28 08:16:54;;;;;;;8.25;3.17;;;;;;;;;;4951058;28;20410;-59
2021/09/28 08:19:19;;;;;;;10.32;3.55;;;;;;;;;;4950739;28;20587;-58
2021/09/28 08:21:44;;;;;;;10.07;3.38;;;;;;;;;;4955357;28;20398;-59
2021/09/28 08:24:10;;;;;;;8.65;3.08;;;;;;;;;;4951636;28;20607;-58
2021/09/28 08:29:09;;;;;;;14.38;3.90;;;;;;;;;;4951359;28;20051;-59
2021/09/28 08:31:38;;;;;;;8.65;3.08;;;;;;;;;;4949976;28;20043;-58
2021/09/28 08:34:03;;;;;;;6.95;2.63;;;;;;;;;;4950123;28;20039;-58
2021/09/28 08:36:29;;;;;;;8.70;2.92;;;;;;;;;;4964002;28;20046;-58
2021/09/28 08:38:54;;;;;;;7.80;2.42;;;;;;;;;;4953782;28;20054;-59
2021/09/28 08:41:21;;;;;;;11.27;3.10;;;;;;;;;;4955137;28;20482;-58
2021/09/28 08:43:46;;;;;;;9.13;3.10;;;;;;;;;;4951207;28;20031;-58
2021/09/28 08:46:14;;;;;;;9.93;3.33;;;;;;;;;;4950898;28;20082;-58
2021/09/28 08:48:39;;;;;;;8.23;3.00;;;;;;;;;;4959719;28;20135;-59
2021/09/28 08:51:04;;;;;;;10.80;2.95;;;;;;;;;;4951034;28;20122;-58
2021/09/28 08:53:29;;;;;;;6.95;3.22;;;;;;;;;;4953498;28;20609;-58
2021/09/28 08:55:54;;;;;;;7.15;2.72;;;;;;;;;;4954444;28;20485;-58
2021/09/28 08:58:20;;;;;;;6.57;2.70;;;;;;;;;;4950448;28;20418;-58
2021/09/28 09:00:46;;;;;;;8.02;2.90;;;;;;;;;;4950239;28;20087;-58
2021/09/28 09:03:27;;;;;;;10.70;2.90;;;;;;;;;;4950088;28;20034;-58
2021/09/28 09:05:52;;;;;;;8.23;3.45;;;;;;;;;;4957063;28;20036;-58
2021/09/28 09:08:22;;;;;;;8.55;2.88;;;;;;;;;;4950585;28;20184;-57
2021/09/28 09:10:47;;;;;;;8.40;3.20;;;;;;;;;;4950873;28;20039;-57
2021/09/28 09:13:13;;;;;;;7.65;3.47;;;;;;;;;;4953592;28;20026;-58
2021/09/28 09:15:39;;;;;;;8.35;3.08;;;;;;;;;;4949130;28;20528;-57
2021/09/28 09:18:04;;;;;;;7.82;3.03;;;;;;;;;;4950485;28;20047;-58
2021/09/28 09:20:40;;;;;;;9.35;3.38;;;;;;;;;;4949611;28;20036;-58
2021/09/28 09:23:26;;;;;;;12.05;3.40;;;;;;;;;;4950280;28;20068;-57
2021/09/28 09:26:02;;;;;;;8.32;3.50;;;;;;;;;;4950292;28;20280;-58
2021/09/28 09:28:33;;;;;;;8.27;3.15;;;;;;;;;;4957686;28;20508;-57
2021/09/28 09:31:05;;;;;;;8.65;3.63;;;;;;;;;;4949842;28;20043;-57
2021/09/28 09:33:30;;;;;;;12.48;4.15;;;;;;;;;;4952327;28;20485;-58
2021/09/28 09:35:57;;;;;;;9.18;3.17;;;;;;;;;;4957412;28;20058;-57
2021/09/28 09:38:22;;;;;;;14.52;3.55;;;;;;;;;;4949776;28;20023;-58
2021/09/28 09:40:48;;;;;;;11.45;3.30;;;;;;;;;;4949606;28;20090;-57
2021/09/28 09:43:14;;;;;;;8.02;3.42;;;;;;;;;;4955309;28;20023;-57
2021/09/28 09:45:39;;;;;;;9.00;3.20;;;;;;;;;;4954550;28;20529;-58
2021/09/28 09:48:37;;;;;;;10.95;3.78;;;;;;;;;;4953610;28;20031;-58
2021/09/28 09:51:05;;;;;;;11.75;3.65;;;;;;;;;;4932713;28;20034;-57
2021/09/28 09:53:30;;;;;;;11.57;3.33;;;;;;;;;;4954027;28;20059;-58
2021/09/28 09:55:56;;;;;;;12.25;3.60;;;;;;;;;;4955300;28;20062;-57
2021/09/28 09:58:21;;;;;;;10.45;3.15;;;;;;;;;;4953414;28;20027;-57
2021/09/28 10:00:52;;;;;;;11.23;3.33;;;;;;;;;;4952590;28;20065;-57
2021/09/28 10:03:17;;;;;;;9.15;3.63;;;;;;;;;;4953441;28;20470;-57
2021/09/28 10:05:42;;;;;;;11.38;3.88;;;;;;;;;;4952081;28;20051;-57
2021/09/28 10:08:09;;;;;;;8.55;3.40;;;;;;;;;;4959881;28;20034;-57
2021/09/28 10:10:34;;;;;;;9.20;3.40;;;;;;;;;;4951648;28;20346;-57
2021/09/28 10:12:59;;;;;;;16.88;3.83;;;;;;;;;;4952886;28;20035;-58
2021/09/28 10:15:25;;;;;;;15.40;3.85;;;;;;;;;;4955213;28;20035;-57
2021/09/28 10:17:50;;;;;;;12.52;3.78;;;;;;;;;;4960823;28;20030;-58
2021/09/28 10:20:21;;;;;;;11.18;3.75;;;;;;;;;;4951905;28;20031;-57
2021/09/28 10:22:52;;;;;;;13.88;3.83;;;;;;;;;;4956109;28;20243;-57
2021/09/28 10:25:23;;;;;;;11.45;4.50;;;;;;;;;;4953246;28;20054;-57
2021/09/28 10:27:53;;;;;;;8.25;3.72;;;;;;;;;;4952181;28;20172;-57
2021/09/28 10:30:33;;;;;;;11.50;4.00;;;;;;;;;;4920117;28;20131;-57
2021/09/28 10:32:59;;;;;;;9.80;4.03;;;;;;;;;;4895931;29;20042;-57
2021/09/28 10:35:24;;;;;;;8.30;4.03;;;;;;;;;;4907134;28;20032;-57
2021/09/28 10:37:53;;;;;;;13.93;4.22;;;;;;;;;;4917137;29;20386;-59
2021/09/28 10:40:21;;;;;;;13.77;3.90;;;;;;;;;;4918871;28;20503;-59
2021/09/28 10:42:47;;;;;;;7.97;3.78;;;;;;;;;;4914592;29;20032;-59
2021/09/28 10:45:15;;;;;;;11.18;4.07;;;;;;;;;;4914155;28;20030;-57
2021/09/28 10:47:50;;;;;;;8.88;3.28;;;;;;;;;;4914776;29;20114;-57
2021/09/28 10:50:20;;;;;;;14.43;3.60;;;;;;;;;;4916017;28;20615;-59
2021/09/28 10:52:45;;;;;;;8.52;3.25;;;;;;;;;;4914507;29;20032;-57
2021/09/28 10:55:12;;;;;;;15.52;4.10;;;;;;;;;;4913331;28;20520;-57
2021/09/28 10:58:09;;;;;;;11.40;3.40;;;;;;;;;;4920122;29;20422;-57
2021/09/28 11:00:58;;;;;;;9.07;3.28;;;;;;;;;;4913581;28;20040;-57
2021/09/28 11:03:42;;;;;;;10.23;2.97;;;;;;;;;;4914148;29;20028;-57
2021/09/28 11:06:08;;;;;;;10.02;4.05;;;;;;;;;;4916437;28;20040;-57
2021/09/28 11:08:36;;;;;;;8.60;3.17;;;;;;;;;;4913483;29;20039;-57
2021/09/28 11:11:05;;;;;;;9.90;3.05;;;;;;;;;;4924021;29;20257;-59
2021/09/28 11:13:31;;;;;;;13.35;3.08;;;;;;;;;;4912542;29;20036;-57
2021/09/28 11:16:00;;;;;;;10.85;3.10;;;;;;;;;;4912807;28;20036;-60
2021/09/28 11:18:25;;;;;;;8.70;2.95;;;;;;;;;;4914336;29;20106;-58
2021/09/28 11:20:50;;;;;;;8.80;3.05;;;;;;;;;;4915701;29;20487;-58
2021/09/28 11:23:16;;;;;;;10.60;3.10;;;;;;;;;;4914003;29;20031;-59
2021/09/28 11:25:51;;;;;;;10.30;3.67;;;;;;;;;;4920090;28;20301;-58
2021/09/28 11:28:17;;;;;;;8.85;2.75;;;;;;;;;;4920043;29;20189;-57
2021/09/28 11:30:52;;;;;;;11.07;3.45;;;;;;;;;;4934890;28;20066;-57
2021/09/28 11:33:18;;;;;;;9.13;3.08;;;;;;;;;;4933450;28;20050;-59
2021/09/28 11:35:59;;;;;;;8.88;2.78;;;;;;;;;;4956204;28;20047;-58
2021/09/28 11:38:28;;;;;;;12.30;3.30;;;;;;;;;;4955263;28;20041;-62
2021/09/28 11:41:00;;;;;;;9.27;3.30;;;;;;;;;;4950628;28;20386;-60
2021/09/28 11:43:28;;;;;;;7.43;3.25;;;;;;;;;;4951309;28;20019;-59
2021/09/28 11:46:00;;;;;;;9.35;3.13;;;;;;;;;;4937849;28;20049;-57
2021/09/28 11:48:29;;;;;;;8.65;3.20;;;;;;;;;;4939544;28;20489;-59
2021/09/28 11:50:55;;;;;;;10.88;2.97;;;;;;;;;;4955341;28;20138;-58
2021/09/28 11:53:20;;;;;;;8.15;2.72;;;;;;;;;;4958244;28;20481;-58
2021/09/28 11:55:45;;;;;;;11.65;2.85;;;;;;;;;;4933028;28;20062;-58
2021/09/28 11:58:11;;;;;;;6.60;2.40;;;;;;;;;;4956717;28;20457;-58
2021/09/28 12:00:36;;;;;;;13.13;3.05;;;;;;;;;;4952430;28;20482;-59
2021/09/28 12:03:05;;;;;;;8.93;2.65;;;;;;;;;;4934078;29;20110;-58
2021/09/28 12:05:45;;;;;;;7.35;2.22;;;;;;;;;;4950386;28;20035;-58
2021/09/28 12:08:25;;;;;;;6.80;2.22;;;;;;;;;;4952106;28;20089;-57
2021/09/28 12:10:50;;;;;;;9.77;2.35;;;;;;;;;;4950885;28;20043;-57
2021/09/28 12:13:17;;;;;;;5.88;2.38;;;;;;;;;;4950688;28;21789;-57
2021/09/28 12:15:57;;;;;;;10.30;2.63;;;;;;;;;;4950541;28;20130;-57
2021/09/28 12:18:22;;;;;;;10.25;2.28;;;;;;;;;;4955840;28;20063;-58
2021/09/28 12:20:48;;;;;;;7.93;2.30;;;;;;;;;;4950425;28;20059;-58
2021/09/28 12:23:13;;;;;;;12.30;2.78;;;;;;;;;;4950976;28;20029;-58
2021/09/28 12:25:38;;;;;;;14.40;2.65;;;;;;;;;;4950348;28;20638;-57
2021/09/28 12:28:24;;;;;;;17.13;2.30;;;;;;;;;;4951395;28;20085;-57
2021/09/28 12:30:50;;;;;;;10.32;2.22;;;;;;;;;;4936396;28;20502;-57
2021/09/28 12:33:15;;;;;;;9.60;2.42;;;;;;;;;;4950847;28;20067;-57
2021/09/28 12:35:40;;;;;;;10.50;2.10;;;;;;;;;;4955961;28;20067;-58
2021/09/28 12:38:06;;;;;;;6.97;2.00;;;;;;;;;;4957049;28;20068;-58
2021/09/28 12:40:32;;;;;;;7.00;2.05;;;;;;;;;;4954010;28;20170;-58
2021/09/28 12:43:02;;;;;;;9.52;2.33;;;;;;;;;;4954705;28;20063;-57
2021/09/28 12:45:27;;;;;;;8.45;2.28;;;;;;;;;;4949759;28;20494;-57
2021/09/28 12:47:56;;;;;;;8.70;1.92;;;;;;;;;;4957516;28;20050;-58
2021/09/28 12:50:28;;;;;;;8.35;2.15;;;;;;;;;;4957008;28;20043;-58
2021/09/28 12:52:56;;;;;;;6.88;2.28;;;;;;;;;;4952074;28;20030;-58
2021/09/28 12:55:22;;;;;;;7.85;2.20;;;;;;;;;;4955609;28;20589;-57
2021/09/28 12:57:47;;;;;;;6.57;2.15;;;;;;;;;;4951860;28;20058;-57
2021/09/28 13:00:12;;;;;;;7.43;2.45;;;;;;;;;;4948950;28;20381;-57
2021/09/28 13:02:39;;;;;;;9.40;2.20;;;;;;;;;;4950509;28;20090;-58
2021/09/28 13:05:06;;;;;;;10.07;2.10;;;;;;;;;;4951424;28;21272;-58
2021/09/28 13:07:32;;;;;;;9.40;2.40;;;;;;;;;;4962635;28;20533;-57
2021/09/28 13:09:57;;;;;;;6.47;1.73;;;;;;;;;;4954213;28;20035;-58
2021/09/28 13:12:22;;;;;;;9.05;1.88;;;;;;;;;;4952676;28;20039;-58
2021/09/28 13:14:48;;;;;;;10.57;2.20;;;;;;;;;;4951828;28;20047;-57
2021/09/28 13:17:13;;;;;;;9.55;2.15;;;;;;;;;;4957986;28;20034;-57
2021/09/28 13:19:38;;;;;;;10.13;1.80;;;;;;;;;;4961227;28;20126;-57
2021/09/28 13:22:04;;;;;;;6.72;1.60;;;;;;;;;;4951585;28;20150;-58
2021/09/28 13:24:29;;;;;;;6.45;1.92;;;;;;;;;;4954344;28;20031;-59
2021/09/28 13:26:54;;;;;;;5.88;1.92;;;;;;;;;;4956907;28;20043;-59
2021/09/28 13:29:19;;;;;;;11.32;2.30;;;;;;;;;;4959515;28;20541;-58
2021/09/28 13:31:45;;;;;;;7.45;2.20;;;;;;;;;;4955742;28;20038;-56
2021/09/28 13:34:10;;;;;;;7.03;1.67;;;;;;;;;;4956774;28;20035;-56
2021/09/28 13:36:36;;;;;;;10.35;1.90;;;;;;;;;;4951960;28;20035;-56
2021/09/28 13:39:04;;;;;;;7.75;1.63;;;;;;;;;;4954502;28;20062;-58
2021/09/28 13:41:29;;;;;;;9.38;1.88;;;;;;;;;;4958529;28;20035;-58
2021/09/28 13:43:54;;;;;;;7.70;2.15;;;;;;;;;;4963934;28;20030;-58
2021/09/28 13:46:19;;;;;;;5.30;1.70;;;;;;;;;;4957046;28;20475;-56
2021/09/28 13:48:44;;;;;;;5.53;1.77;;;;;;;;;;4966531;28;20470;-58
2021/09/28 13:51:10;;;;;;;7.68;1.75;;;;;;;;;;4951540;28;20062;-58
2021/09/28 13:53:35;;;;;;;9.55;1.88;;;;;;;;;;4962134;28;20428;-58
2021/09/28 13:56:00;;;;;;;11.00;2.20;;;;;;;;;;4956422;28;20485;-57
2021/09/28 13:58:25;;;;;;;7.32;2.05;;;;;;;;;;4953789;28;20477;-57
2021/09/28 14:00:50;;;;;;;8.90;2.00;;;;;;;;;;4958363;28;20508;-57
2021/09/28 14:03:16;;;;;;;5.95;1.83;;;;;;;;;;4953514;28;20035;-57
2021/09/28 14:05:41;;;;;;;5.60;1.80;;;;;;;;;;4952904;28;20713;-58
2021/09/28 14:08:07;;;;;;;8.00;1.90;;;;;;;;;;4953754;28;20058;-58
2021/09/28 14:10:32;;;;;;;11.38;2.42;;;;;;;;;;4952840;28;20043;-59
2021/09/28 14:12:57;;;;;;;7.25;2.40;;;;;;;;;;4950742;28;20031;-57
2021/09/28 14:15:23;;;;;;;6.60;2.03;;;;;;;;;;4957010;28;20661;-56
2021/09/28 14:17:48;;;;;;;11.13;2.20;;;;;;;;;;4955083;28;20030;-57
2021/09/28 14:20:13;;;;;;;7.05;1.90;;;;;;;;;;4955825;28;20023;-57
2021/09/28 14:22:38;;;;;;;6.30;1.63;;;;;;;;;;4951059;28;20023;-57
2021/09/28 14:25:04;;;;;;;6.93;1.98;;;;;;;;;;4954686;28;20027;-56
2021/09/28 14:27:29;;;;;;;11.98;2.13;;;;;;;;;;4956226;28;20042;-56
2021/09/28 14:29:54;;;;;;;8.38;2.08;;;;;;;;;;4954112;28;20371;-55
2021/09/28 14:32:19;;;;;;;7.82;2.28;;;;;;;;;;4951756;28;20456;-56
2021/09/28 14:34:45;;;;;;;6.95;2.00;;;;;;;;;;4962128;28;20046;-56